Time,TemperatureF,DewpointF,PressureIn,WindDirection,WindDirectionDegrees,WindSpeedMPH,WindSpeedGustMPH,Humidity,HourlyPrecipIn,Conditions,Clouds,dailyrainin,SoftwareType,DateUTC
2013-06-26 00:04:00,79.0,0.0,29.84,WNW,291,1.0,9.0,36,-99.99,,,-99.99,,2013-06-26 07:04:00,
2013-06-26 00:12:00,77.0,0.0,29.83,SW,233,9.0,9.0,37,-99.99,,,-99.99,,2013-06-26 07:12:00,
2013-06-26 00:20:00,77.0,0.0,29.84,NE,55,2.0,9.0,40,-99.99,,,-99.99,,2013-06-26 07:20:00,
2013-06-26 00:28:00,76.0,0.0,29.84,South,185,5.0,5.0,39,-99.99,,,-99.99,,2013-06-26 07:28:00,
2013-06-26 00:36:00,0.0,0.0,-0.01,North,0,0.0,0.0,0,-99.99,,,-99.99,,2013-06-26 07:36:00,
2013-06-26 00:44:00,74.0,0.0,29.84,SE,131,5.0,5.0,42,-99.99,,,-99.99,,2013-06-26 07:44:00,
2013-06-26 00:52:00,74.0,0.0,29.84,South,170,5.0,7.0,42,-99.99,,,-99.99,,2013-06-26 07:52:00,
2013-06-26 01:00:00,74.0,0.0,29.84,WSW,237,2.0,7.0,42,-99.99,,,-99.99,,2013-06-26 08:00:00,
2013-06-26 01:08:00,73.0,0.0,29.85,ESE,119,2.0,3.0,46,-99.99,,,-99.99,,2013-06-26 08:08:00,
2013-06-26 01:16:00,73.0,0.0,29.84,SE,127,7.0,7.0,45,-99.99,,,-99.99,,2013-06-26 08:16:00,
2013-06-26 01:24:00,74.0,0.0,29.84,SE,139,7.0,8.0,42,-99.99,,,-99.99,,2013-06-26 08:24:00,
2013-06-26 01:32:00,73.0,0.0,29.85,ESE,114,9.0,9.0,42,-99.99,,,-99.99,,2013-06-26 08:32:00,
2013-06-26 01:40:00,73.0,0.0,29.85,ESE,104,6.0,9.0,46,-99.99,,,-99.99,,2013-06-26 08:40:00,
2013-06-26 01:48:00,73.0,0.0,29.85,ESE,116,7.0,7.0,43,-99.99,,,-99.99,,2013-06-26 08:48:00,
2013-06-26 01:56:00,72.0,0.0,29.85,ESE,115,6.0,8.0,46,-99.99,,,-99.99,,2013-06-26 08:56:00,
2013-06-26 02:04:00,72.0,0.0,29.85,ESE,118,7.0,9.0,48,-99.99,,,-99.99,,2013-06-26 09:04:00,
2013-06-26 02:12:00,73.0,0.0,29.86,ESE,123,7.0,8.0,45,-99.99,,,-99.99,,2013-06-26 09:12:00,
2013-06-26 02:20:00,73.0,0.0,29.86,ESE,118,6.0,8.0,48,-99.99,,,-99.99,,2013-06-26 09:20:00,
2013-06-26 02:28:00,74.0,0.0,29.86,East,91,2.0,9.0,45,-99.99,,,-99.99,,2013-06-26 09:28:00,
2013-06-26 02:36:00,73.0,0.0,29.86,SW,222,1.0,5.0,47,-99.99,,,-99.99,,2013-06-26 09:36:00,
2013-06-26 02:44:00,74.0,0.0,29.87,SE,127,7.0,9.0,48,-99.99,,,-99.99,,2013-06-26 09:44:00,
2013-06-26 02:52:00,74.0,0.0,29.87,SSE,154,7.0,9.0,47,-99.99,,,-99.99,,2013-06-26 09:52:00,
2013-06-26 03:00:00,73.0,0.0,29.87,SE,139,7.0,9.0,48,-99.99,,,-99.99,,2013-06-26 10:00:00,
2013-06-26 03:08:00,72.0,0.0,29.87,ESE,116,8.0,8.0,47,-99.99,,,-99.99,,2013-06-26 10:08:00,
2013-06-26 03:16:00,72.0,0.0,29.87,SSE,164,3.0,8.0,49,-99.99,,,-99.99,,2013-06-26 10:16:00,
2013-06-26 03:24:00,72.0,0.0,29.87,SE,131,2.0,6.0,49,-99.99,,,-99.99,,2013-06-26 10:24:00,
2013-06-26 03:32:00,71.0,0.0,29.88,SE,130,3.0,3.0,48,-99.99,,,-99.99,,2013-06-26 10:32:00,
2013-06-26 03:40:00,71.0,0.0,29.88,ESE,111,5.0,5.0,48,-99.99,,,-99.99,,2013-06-26 10:40:00,
2013-06-26 03:48:00,71.0,0.0,29.88,ESE,119,5.0,5.0,49,-99.99,,,-99.99,,2013-06-26 10:48:00,
2013-06-26 03:56:00,70.0,0.0,29.89,ESE,114,6.0,7.0,51,-99.99,,,-99.99,,2013-06-26 10:56:00,
2013-06-26 04:04:00,70.0,0.0,29.89,SE,127,7.0,7.0,51,-99.99,,,-99.99,,2013-06-26 11:04:00,
2013-06-26 04:12:00,71.0,0.0,29.89,SSE,158,6.0,8.0,47,-99.99,,,-99.99,,2013-06-26 11:12:00,
2013-06-26 04:20:00,72.0,0.0,29.89,SSE,149,3.0,7.0,46,-99.99,,,-99.99,,2013-06-26 11:20:00,
2013-06-26 04:28:00,71.0,0.0,29.89,SE,127,5.0,5.0,51,-99.99,,,-99.99,,2013-06-26 11:28:00,
2013-06-26 04:36:00,71.0,0.0,29.89,SE,141,6.0,6.0,49,-99.99,,,-99.99,,2013-06-26 11:36:00,
2013-06-26 04:44:00,70.0,0.0,29.90,ESE,122,3.0,6.0,53,-99.99,,,-99.99,,2013-06-26 11:44:00,
2013-06-26 04:52:00,70.0,0.0,29.90,ENE,77,2.0,6.0,52,-99.99,,,-99.99,,2013-06-26 11:52:00,
2013-06-26 05:00:00,70.0,0.0,29.90,ESE,108,6.0,6.0,52,-99.99,,,-99.99,,2013-06-26 12:00:00,
2013-06-26 05:08:00,70.0,0.0,29.90,ESE,109,2.0,6.0,52,-99.99,,,-99.99,,2013-06-26 12:08:00,
2013-06-26 05:16:00,70.0,0.0,29.90,SE,129,1.0,3.0,52,-99.99,,,-99.99,,2013-06-26 12:16:00,
2013-06-26 05:24:00,69.0,0.0,29.91,ESE,107,2.0,3.0,55,-99.99,,,-99.99,,2013-06-26 12:24:00,
2013-06-26 05:32:00,68.0,0.0,29.91,SSE,148,2.0,3.0,55,-99.99,,,-99.99,,2013-06-26 12:32:00,
2013-06-26 05:40:00,68.0,0.0,29.91,SSE,159,2.0,3.0,52,-99.99,,,-99.99,,2013-06-26 12:40:00,
2013-06-26 05:48:00,67.0,0.0,29.92,WSW,242,0.0,3.0,55,-99.99,,,-99.99,,2013-06-26 12:48:00,
2013-06-26 05:56:00,66.0,0.0,29.92,North,349,5.0,5.0,56,-99.99,,,-99.99,,2013-06-26 12:56:00,
2013-06-26 06:04:00,67.0,0.0,29.93,SE,129,0.0,5.0,54,-99.99,,,-99.99,,2013-06-26 13:04:00,
2013-06-26 06:12:00,70.0,0.0,29.93,South,186,3.0,3.0,48,-99.99,,,-99.99,,2013-06-26 13:12:00,
2013-06-26 06:16:00,70.0,0.0,29.93,SW,215,3.0,5.0,48,-99.99,,,-99.99,,2013-06-26 13:16:00,
2013-06-26 06:24:00,70.0,0.0,29.93,SW,221,0.0,3.0,48,-99.99,,,-99.99,,2013-06-26 13:24:00,
2013-06-26 06:32:00,72.0,0.0,29.93,NNE,12,0.0,3.0,46,-99.99,,,-99.99,,2013-06-26 13:32:00,
2013-06-26 06:40:00,73.0,0.0,29.93,SSW,202,0.0,1.0,48,-99.99,,,-99.99,,2013-06-26 13:40:00,
2013-06-26 06:48:00,74.0,0.0,29.94,NNW,330,0.0,1.0,42,-99.99,,,-99.99,,2013-06-26 13:48:00,
2013-06-26 06:56:00,74.0,0.0,29.94,SE,133,1.0,2.0,43,-99.99,,,-99.99,,2013-06-26 13:56:00,
2013-06-26 07:04:00,73.0,0.0,29.94,SE,137,2.0,3.0,45,-99.99,,,-99.99,,2013-06-26 14:04:00,
2013-06-26 07:12:00,74.0,0.0,29.95,SSE,160,3.0,5.0,45,-99.99,,,-99.99,,2013-06-26 14:12:00,
2013-06-26 07:20:00,74.0,0.0,29.95,SSE,154,2.0,5.0,43,-99.99,,,-99.99,,2013-06-26 14:20:00,
2013-06-26 07:28:00,74.0,0.0,29.95,ESE,113,2.0,5.0,44,-99.99,,,-99.99,,2013-06-26 14:28:00,
2013-06-26 07:36:00,74.0,0.0,29.95,SE,124,2.0,6.0,46,-99.99,,,-99.99,,2013-06-26 14:36:00,
2013-06-26 07:44:00,76.0,0.0,29.95,SSE,152,3.0,6.0,44,-99.99,,,-99.99,,2013-06-26 14:44:00,
2013-06-26 07:52:00,77.0,0.0,29.95,South,175,2.0,6.0,44,-99.99,,,-99.99,,2013-06-26 14:52:00,
2013-06-26 08:00:00,77.0,0.0,29.96,SSE,150,2.0,7.0,44,-99.99,,,-99.99,,2013-06-26 15:00:00,
2013-06-26 08:08:00,78.0,0.0,29.96,East,96,2.0,7.0,41,-99.99,,,-99.99,,2013-06-26 15:08:00,
2013-06-26 08:16:00,79.0,0.0,29.96,SE,141,5.0,9.0,41,-99.99,,,-99.99,,2013-06-26 15:16:00,
2013-06-26 08:24:00,80.0,0.0,29.96,SSE,158,7.0,8.0,39,-99.99,,,-99.99,,2013-06-26 15:24:00,
2013-06-26 08:32:00,81.0,0.0,29.96,SSE,151,5.0,9.0,38,-99.99,,,-99.99,,2013-06-26 15:32:00,
2013-06-26 08:40:00,81.0,0.0,29.96,SSE,155,7.0,9.0,39,-99.99,,,-99.99,,2013-06-26 15:40:00,
2013-06-26 08:48:00,81.0,0.0,29.96,SSW,196,5.0,8.0,37,-99.99,,,-99.99,,2013-06-26 15:48:00,
2013-06-26 08:56:00,82.0,0.0,29.97,SSE,161,6.0,8.0,38,-99.99,,,-99.99,,2013-06-26 15:56:00,
2013-06-26 09:04:00,83.0,0.0,29.97,South,174,2.0,7.0,36,-99.99,,,-99.99,,2013-06-26 16:04:00,
2013-06-26 09:12:00,83.0,0.0,29.96,SSE,152,6.0,7.0,35,-99.99,,,-99.99,,2013-06-26 16:12:00,
2013-06-26 09:20:00,84.0,0.0,29.96,SSW,212,3.0,8.0,35,-99.99,,,-99.99,,2013-06-26 16:20:00,
2013-06-26 09:28:00,85.0,0.0,29.96,SSE,150,3.0,10.0,33,-99.99,,,-99.99,,2013-06-26 16:28:00,
2013-06-26 09:36:00,85.0,0.0,29.96,South,172,7.0,15.0,37,-99.99,,,-99.99,,2013-06-26 16:36:00,
2013-06-26 09:44:00,86.0,0.0,29.96,SSE,149,3.0,15.0,36,-99.99,,,-99.99,,2013-06-26 16:44:00,
2013-06-26 09:52:00,86.0,0.0,29.96,SSW,197,7.0,10.0,32,-99.99,,,-99.99,,2013-06-26 16:52:00,
2013-06-26 10:00:00,88.0,0.0,29.96,South,189,8.0,10.0,30,-99.99,,,-99.99,,2013-06-26 17:00:00,
2013-06-26 10:08:00,88.0,0.0,29.96,South,181,10.0,13.0,30,-99.99,,,-99.99,,2013-06-26 17:08:00,
2013-06-26 10:16:00,87.0,0.0,29.96,South,172,10.0,13.0,31,-99.99,,,-99.99,,2013-06-26 17:16:00,
2013-06-26 10:24:00,88.0,0.0,29.96,SSW,200,6.0,12.0,30,-99.99,,,-99.99,,2013-06-26 17:24:00,
2013-06-26 10:32:00,89.0,0.0,29.96,SW,236,7.0,12.0,30,-99.99,,,-99.99,,2013-06-26 17:32:00,
2013-06-26 10:40:00,89.0,0.0,29.96,SW,226,5.0,12.0,29,-99.99,,,-99.99,,2013-06-26 17:40:00,
2013-06-26 10:48:00,90.0,0.0,29.96,SSW,204,1.0,14.0,26,-99.99,,,-99.99,,2013-06-26 17:48:00,
2013-06-26 10:56:00,92.0,0.0,29.96,SSE,161,1.0,10.0,27,-99.99,,,-99.99,,2013-06-26 17:56:00,
2013-06-26 11:04:00,92.0,0.0,29.96,East,90,1.0,9.0,25,-99.99,,,-99.99,,2013-06-26 18:04:00,
2013-06-26 11:12:00,92.0,0.0,29.96,SE,145,5.0,12.0,26,-99.99,,,-99.99,,2013-06-26 18:12:00,
2013-06-26 11:20:00,92.0,0.0,29.96,WSW,245,3.0,7.0,26,-99.99,,,-99.99,,2013-06-26 18:20:00,
2013-06-26 11:28:00,93.0,0.0,29.95,South,182,3.0,10.0,26,-99.99,,,-99.99,,2013-06-26 18:28:00,
2013-06-26 11:36:00,94.0,0.0,29.95,West,262,2.0,8.0,25,-99.99,,,-99.99,,2013-06-26 18:36:00,
2013-06-26 11:44:00,94.0,0.0,29.95,ESE,114,1.0,10.0,25,-99.99,,,-99.99,,2013-06-26 18:44:00,
2013-06-26 11:52:00,92.0,0.0,29.95,ENE,78,5.0,12.0,27,-99.99,,,-99.99,,2013-06-26 18:52:00,
2013-06-26 12:00:00,95.0,0.0,29.94,SE,135,1.0,10.0,25,-99.99,,,-99.99,,2013-06-26 19:00:00,
2013-06-26 12:08:00,95.0,0.0,29.94,NNW,346,3.0,10.0,23,-99.99,,,-99.99,,2013-06-26 19:08:00,
2013-06-26 12:16:00,95.0,0.0,29.94,SSE,161,7.0,13.0,23,-99.99,,,-99.99,,2013-06-26 19:16:00,
2013-06-26 12:24:00,96.0,0.0,29.94,South,171,8.0,9.0,23,-99.99,,,-99.99,,2013-06-26 19:24:00,
2013-06-26 12:32:00,96.0,0.0,29.94,SSE,148,8.0,13.0,25,-99.99,,,-99.99,,2013-06-26 19:32:00,
2013-06-26 12:40:00,96.0,0.0,29.94,SW,214,1.0,12.0,24,-99.99,,,-99.99,,2013-06-26 19:40:00,
2013-06-26 12:48:00,97.0,0.0,29.93,SSE,160,2.0,14.0,24,-99.99,,,-99.99,,2013-06-26 19:48:00,
2013-06-26 12:56:00,98.0,0.0,29.92,ENE,61,7.0,14.0,22,-99.99,,,-99.99,,2013-06-26 19:56:00,
2013-06-26 13:04:00,98.0,0.0,29.92,SSW,196,9.0,15.0,23,-99.99,,,-99.99,,2013-06-26 20:04:00,
2013-06-26 13:12:00,98.0,0.0,29.92,South,174,13.0,14.0,21,-99.99,,,-99.99,,2013-06-26 20:12:00,
2013-06-26 13:20:00,98.0,0.0,29.92,NNW,332,1.0,13.0,23,-99.99,,,-99.99,,2013-06-26 20:20:00,
2013-06-26 13:28:00,98.0,0.0,29.91,South,179,1.0,13.0,21,-99.99,,,-99.99,,2013-06-26 20:28:00,
2013-06-26 13:36:00,99.0,0.0,29.91,ENE,72,3.0,17.0,23,-99.99,,,-99.99,,2013-06-26 20:36:00,
2013-06-26 13:44:00,99.0,0.0,29.91,East,99,10.0,16.0,25,-99.99,,,-99.99,,2013-06-26 20:44:00,
2013-06-26 13:52:00,100.0,0.0,29.90,SSE,164,8.0,14.0,23,-99.99,,,-99.99,,2013-06-26 20:52:00,
2013-06-26 14:00:00,99.0,0.0,29.90,ENE,78,8.0,29.0,23,-99.99,,,-99.99,,2013-06-26 21:00:00,
2013-06-26 14:08:00,101.0,0.0,29.90,East,96,13.0,17.0,20,-99.99,,,-99.99,,2013-06-26 21:08:00,
2013-06-26 14:16:00,101.0,0.0,29.89,SE,139,12.0,16.0,20,-99.99,,,-99.99,,2013-06-26 21:16:00,
2013-06-26 14:24:00,101.0,0.0,29.89,SE,139,10.0,16.0,22,-99.99,,,-99.99,,2013-06-26 21:24:00,
2013-06-26 14:32:00,101.0,0.0,29.89,ESE,109,13.0,16.0,21,-99.99,,,-99.99,,2013-06-26 21:32:00,
2013-06-26 14:40:00,100.0,0.0,29.88,ESE,106,8.0,16.0,22,-99.99,,,-99.99,,2013-06-26 21:40:00,
2013-06-26 14:48:00,102.0,0.0,29.88,SE,128,3.0,15.0,22,-99.99,,,-99.99,,2013-06-26 21:48:00,
2013-06-26 14:56:00,103.0,0.0,29.88,SSW,193,9.0,18.0,19,-99.99,,,-99.99,,2013-06-26 21:56:00,
2013-06-26 15:04:00,104.0,0.0,29.87,SW,214,16.0,25.0,18,-99.99,,,-99.99,,2013-06-26 22:04:00,
2013-06-26 15:12:00,103.0,0.0,29.87,SW,235,9.0,25.0,18,-99.99,,,-99.99,,2013-06-26 22:12:00,
2013-06-26 15:20:00,104.0,0.0,29.87,SE,126,10.0,21.0,15,-99.99,,,-99.99,,2013-06-26 22:20:00,
2013-06-26 15:28:00,105.0,0.0,29.87,SSW,212,6.0,17.0,15,-99.99,,,-99.99,,2013-06-26 22:28:00,
2013-06-26 15:36:00,105.0,0.0,29.87,SSE,152,17.0,21.0,17,-99.99,,,-99.99,,2013-06-26 22:36:00,
2013-06-26 15:44:00,104.0,0.0,29.86,SSW,193,10.0,22.0,16,-99.99,,,-99.99,,2013-06-26 22:44:00,
2013-06-26 15:52:00,104.0,0.0,29.86,SSW,193,10.0,22.0,16,-99.99,,,-99.99,,2013-06-26 22:52:00,
2013-06-26 16:00:00,104.0,0.0,29.86,SSE,166,16.0,20.0,17,-99.99,,,-99.99,,2013-06-26 23:00:00,
2013-06-26 16:08:00,105.0,0.0,29.86,SSW,193,15.0,21.0,15,-99.99,,,-99.99,,2013-06-26 23:08:00,
2013-06-26 16:16:00,104.0,0.0,29.85,SSW,195,21.0,21.0,15,-99.99,,,-99.99,,2013-06-26 23:16:00,
2013-06-26 16:24:00,104.0,0.0,29.86,SW,218,15.0,24.0,15,-99.99,,,-99.99,,2013-06-26 23:24:00,
2013-06-26 16:32:00,104.0,0.0,29.85,SSW,197,16.0,23.0,17,-99.99,,,-99.99,,2013-06-26 23:32:00,
2013-06-26 16:40:00,103.0,0.0,29.86,SSW,207,10.0,24.0,16,-99.99,,,-99.99,,2013-06-26 23:40:00,
2013-06-26 16:48:00,103.0,0.0,29.85,South,175,12.0,18.0,16,-99.99,,,-99.99,,2013-06-26 23:48:00,
2013-06-26 16:56:00,104.0,0.0,29.85,SW,236,10.0,26.0,17,-99.99,,,-99.99,,2013-06-26 23:56:00,
2013-06-26 17:04:00,104.0,0.0,29.85,SW,221,14.0,26.0,16,-99.99,,,-99.99,,2013-06-27 00:04:00,
2013-06-26 17:12:00,103.0,0.0,29.85,South,169,14.0,23.0,17,-99.99,,,-99.99,,2013-06-27 00:12:00,
2013-06-26 17:20:00,103.0,0.0,29.85,SSW,205,16.0,20.0,18,-99.99,,,-99.99,,2013-06-27 00:20:00,
2013-06-26 17:28:00,103.0,0.0,29.85,SW,218,9.0,21.0,16,-99.99,,,-99.99,,2013-06-27 00:28:00,
2013-06-26 17:36:00,103.0,0.0,29.85,SW,226,14.0,20.0,17,-99.99,,,-99.99,,2013-06-27 00:36:00,
2013-06-26 17:44:00,103.0,0.0,29.85,SSW,206,14.0,21.0,15,-99.99,,,-99.99,,2013-06-27 00:44:00,
2013-06-26 17:52:00,103.0,0.0,29.85,SW,236,15.0,20.0,17,-99.99,,,-99.99,,2013-06-27 00:52:00,
2013-06-26 18:00:00,102.0,0.0,29.85,WSW,242,17.0,22.0,16,-99.99,,,-99.99,,2013-06-27 01:00:00,
2013-06-26 18:08:00,102.0,0.0,29.85,WSW,255,9.0,22.0,16,-99.99,,,-99.99,,2013-06-27 01:08:00,
2013-06-26 18:16:00,102.0,0.0,29.85,WSW,239,9.0,21.0,17,-99.99,,,-99.99,,2013-06-27 01:16:00,
2013-06-26 18:24:00,102.0,0.0,29.85,SW,228,12.0,22.0,18,-99.99,,,-99.99,,2013-06-27 01:24:00,
2013-06-26 18:32:00,101.0,0.0,29.85,SSW,200,16.0,23.0,18,-99.99,,,-99.99,,2013-06-27 01:32:00,
2013-06-26 18:40:00,101.0,0.0,29.85,SW,218,14.0,21.0,17,-99.99,,,-99.99,,2013-06-27 01:40:00,
2013-06-26 18:48:00,101.0,0.0,29.85,SW,229,8.0,23.0,18,-99.99,,,-99.99,,2013-06-27 01:48:00,
2013-06-26 18:56:00,100.0,0.0,29.85,WSW,242,12.0,22.0,19,-99.99,,,-99.99,,2013-06-27 01:56:00,
2013-06-26 19:04:00,100.0,0.0,29.86,SW,230,13.0,18.0,21,-99.99,,,-99.99,,2013-06-27 02:04:00,
2013-06-26 19:12:00,99.0,0.0,29.86,WSW,239,12.0,18.0,22,-99.99,,,-99.99,,2013-06-27 02:12:00,
2013-06-26 19:20:00,98.0,0.0,29.86,WSW,255,13.0,18.0,22,-99.99,,,-99.99,,2013-06-27 02:20:00,
2013-06-26 19:28:00,98.0,0.0,29.87,WSW,241,15.0,17.0,23,-99.99,,,-99.99,,2013-06-27 02:28:00,
2013-06-26 19:36:00,97.0,0.0,29.86,SW,236,14.0,16.0,24,-99.99,,,-99.99,,2013-06-27 02:36:00,
2013-06-26 19:44:00,97.0,0.0,29.87,WSW,242,13.0,16.0,22,-99.99,,,-99.99,,2013-06-27 02:44:00,
2013-06-26 19:52:00,96.0,0.0,29.87,SW,229,7.0,14.0,24,-99.99,,,-99.99,,2013-06-27 02:52:00,
2013-06-26 20:00:00,96.0,0.0,29.87,SW,234,7.0,9.0,24,-99.99,,,-99.99,,2013-06-27 03:00:00,
2013-06-26 20:08:00,95.0,0.0,29.87,SW,230,6.0,9.0,23,-99.99,,,-99.99,,2013-06-27 03:08:00,
2013-06-26 20:16:00,94.0,0.0,29.87,SW,236,7.0,9.0,24,-99.99,,,-99.99,,2013-06-27 03:16:00,
2013-06-26 20:24:00,93.0,0.0,29.88,West,270,3.0,6.0,26,-99.99,,,-99.99,,2013-06-27 03:24:00,
2013-06-26 20:32:00,92.0,0.0,29.88,SSW,213,3.0,7.0,27,-99.99,,,-99.99,,2013-06-27 03:32:00,
2013-06-26 20:40:00,91.0,0.0,29.88,South,176,2.0,6.0,25,-99.99,,,-99.99,,2013-06-27 03:40:00,
2013-06-26 20:48:00,91.0,0.0,29.89,SSW,203,5.0,7.0,26,-99.99,,,-99.99,,2013-06-27 03:48:00,
2013-06-26 20:56:00,90.0,0.0,29.89,SSW,192,5.0,7.0,26,-99.99,,,-99.99,,2013-06-27 03:56:00,
2013-06-26 21:04:00,90.0,0.0,29.89,South,180,7.0,8.0,25,-99.99,,,-99.99,,2013-06-27 04:04:00,
2013-06-26 21:08:00,90.0,0.0,29.89,SSW,195,6.0,8.0,28,-99.99,,,-99.99,,2013-06-27 04:08:00,
2013-06-26 21:12:00,90.0,0.0,29.89,South,172,3.0,7.0,26,-99.99,,,-99.99,,2013-06-27 04:12:00,
2013-06-26 21:16:00,89.0,0.0,29.89,South,179,7.0,8.0,28,-99.99,,,-99.99,,2013-06-27 04:16:00,
2013-06-26 21:24:00,88.0,0.0,29.90,South,169,8.0,9.0,28,-99.99,,,-99.99,,2013-06-27 04:24:00,
2013-06-26 21:32:00,88.0,0.0,29.90,SSW,206,7.0,9.0,28,-99.99,,,-99.99,,2013-06-27 04:32:00,
2013-06-26 21:40:00,88.0,0.0,29.90,SW,227,8.0,10.0,27,-99.99,,,-99.99,,2013-06-27 04:40:00,
2013-06-26 21:48:00,88.0,0.0,29.91,SW,216,6.0,10.0,29,-99.99,,,-99.99,,2013-06-27 04:48:00,
2013-06-26 21:56:00,87.0,0.0,29.91,SW,214,7.0,8.0,29,-99.99,,,-99.99,,2013-06-27 04:56:00,
2013-06-26 22:04:00,86.0,0.0,29.92,SSW,206,5.0,7.0,31,-99.99,,,-99.99,,2013-06-27 05:04:00,
2013-06-26 22:12:00,86.0,0.0,29.92,South,190,6.0,6.0,31,-99.99,,,-99.99,,2013-06-27 05:12:00,
2013-06-26 22:20:00,86.0,0.0,29.92,SSE,166,6.0,8.0,31,-99.99,,,-99.99,,2013-06-27 05:20:00,
2013-06-26 22:28:00,86.0,0.0,29.92,South,175,9.0,9.0,31,-99.99,,,-99.99,,2013-06-27 05:28:00,
2013-06-26 22:36:00,88.0,0.0,29.92,South,187,8.0,13.0,30,-99.99,,,-99.99,,2013-06-27 05:36:00,
2013-06-26 22:44:00,86.0,0.0,29.92,South,175,5.0,10.0,33,-99.99,,,-99.99,,2013-06-27 05:44:00,
2013-06-26 22:52:00,85.0,0.0,29.93,SSE,149,7.0,9.0,33,-99.99,,,-99.99,,2013-06-27 05:52:00,
2013-06-26 23:00:00,85.0,0.0,29.93,SSW,204,9.0,13.0,32,-99.99,,,-99.99,,2013-06-27 06:00:00,
2013-06-26 23:08:00,86.0,0.0,29.93,SSW,202,7.0,13.0,34,-99.99,,,-99.99,,2013-06-27 06:08:00,
2013-06-26 23:16:00,85.0,0.0,29.93,South,191,8.0,10.0,32,-99.99,,,-99.99,,2013-06-27 06:16:00,
2013-06-26 23:24:00,85.0,0.0,29.93,South,182,7.0,12.0,32,-99.99,,,-99.99,,2013-06-27 06:24:00,
2013-06-26 23:32:00,84.0,0.0,29.93,SSW,198,8.0,12.0,34,-99.99,,,-99.99,,2013-06-27 06:32:00,
2013-06-26 23:40:00,84.0,0.0,29.93,SSW,197,10.0,10.0,33,-99.99,,,-99.99,,2013-06-27 06:40:00,
2013-06-26 23:48:00,84.0,0.0,29.93,SW,214,7.0,10.0,34,-99.99,,,-99.99,,2013-06-27 06:48:00,
2013-06-26 23:56:00,83.0,0.0,29.93,South,174,7.0,10.0,32,-99.99,,,-99.99,,2013-06-27 06:56:00,